Time;durP1;ratioP1;P1;durP2;ratioP2;P2;SDS_P1;SDS_P2;PMS_P1;PMS_P2;Temp;Humidity;BMP_temperature;BMP_pressure;BME280_temperature;BME280_humidity;BME280_pressure;Samples;Min_cycle;Max_cycle;Signal;HPM_P1;HPM_P2
2023/07/28 00:01:36;;;;;;;27.67;12.07;;;20.30;99.90;;;;;;4898294;29;20040;-67
2023/07/28 00:04:06;;;;;;;27.85;12.00;;;20.10;99.90;;;;;;4915830;29;20040;-67
2023/07/28 00:06:33;;;;;;;16.88;9.82;;;20.10;99.90;;;;;;4898394;29;20091;-67
2023/07/28 00:08:58;;;;;;;33.38;13.50;;;19.80;99.90;;;;;;4915115;29;20075;-67
2023/07/28 00:11:24;;;;;;;23.75;11.23;;;20.30;99.90;;;;;;4898134;29;20599;-66
2023/07/28 00:13:49;;;;;;;29.70;12.15;;;19.10;99.90;;;;;;4915200;29;20458;-67
2023/07/28 00:16:15;;;;;;;29.98;13.27;;;20.50;99.90;;;;;;4915086;29;20127;-67
2023/07/28 00:18:40;;;;;;;31.88;12.57;;;20.10;99.90;;;;;;4915051;29;20048;-67
2023/07/28 00:21:06;;;;;;;27.92;12.68;;;20.90;99.90;;;;;;4897927;29;20082;-67
2023/07/28 00:23:32;;;;;;;35.72;13.35;;;19.80;99.90;;;;;;4915384;29;20092;-67
2023/07/28 00:25:57;;;;;;;39.28;15.48;;;20.20;99.90;;;;;;4915281;29;20044;-67
2023/07/28 00:28:23;;;;;;;33.08;13.30;;;20.40;99.90;;;;;;4915176;29;20534;-66
2023/07/28 00:30:49;;;;;;;30.98;14.95;;;20.50;99.90;;;;;;4897910;29;20051;-67
2023/07/28 00:33:15;;;;;;;29.52;12.35;;;19.50;99.90;;;;;;4898334;29;20407;-67
2023/07/28 00:35:41;;;;;;;32.92;13.68;;;19.20;99.90;;;;;;4897980;29;20044;-67
2023/07/28 00:38:07;;;;;;;38.45;14.13;;;19.30;99.90;;;;;;4915279;29;20044;-67
2023/07/28 00:40:32;;;;;;;39.15;15.70;;;19.60;99.90;;;;;;4914898;29;20115;-67
2023/07/28 00:42:58;;;;;;;47.33;16.38;;;20.20;99.90;;;;;;4915085;29;20292;-67
2023/07/28 00:45:25;;;;;;;39.00;14.77;;;19.60;99.90;;;;;;4898108;29;20179;-67
2023/07/28 00:47:51;;;;;;;47.40;16.20;;;19.80;99.90;;;;;;4899801;29;20040;-67
2023/07/28 00:50:17;;;;;;;36.92;15.65;;;20.50;99.90;;;;;;4918192;29;20063;-67
2023/07/28 00:52:43;;;;;;;37.70;15.48;;;19.00;99.90;;;;;;4918694;29;20074;-67
2023/07/28 00:55:09;;;;;;;38.38;16.83;;;19.90;99.90;;;;;;4918663;29;20500;-67
2023/07/28 00:57:35;;;;;;;37.58;17.48;;;19.80;99.90;;;;;;4901640;29;20088;-67
2023/07/28 01:00:02;;;;;;;44.35;17.48;;;19.60;99.90;;;;;;4901447;29;20044;-67
2023/07/28 01:02:27;;;;;;;39.78;16.67;;;19.30;99.90;;;;;;4902200;29;20488;-67
2023/07/28 01:04:53;;;;;;;47.47;17.55;;;19.90;99.90;;;;;;4901469;29;20036;-67
2023/07/28 01:08:01;;;;;;;42.47;16.35;;;19.40;99.90;;;;;;4918616;29;20091;-67
2023/07/28 01:10:32;;;;;;;44.53;15.75;;;20.00;99.90;;;;;;4912770;29;20428;-67
2023/07/28 01:12:58;;;;;;;46.75;16.77;;;20.50;99.90;;;;;;4901273;29;20047;-67
2023/07/28 01:15:23;;;;;;;41.88;15.70;;;20.00;99.90;;;;;;4901242;29;20036;-67
2023/07/28 01:17:49;;;;;;;43.30;16.60;;;19.70;99.90;;;;;;4918160;29;20051;-67
2023/07/28 01:20:16;;;;;;;45.45;16.17;;;19.20;99.90;;;;;;4900928;29;20094;-67
2023/07/28 01:22:42;;;;;;;40.60;16.45;;;20.20;99.90;;;;;;4917911;29;20377;-67
2023/07/28 01:25:41;;;;;;;40.22;17.25;;;19.40;99.90;;;;;;4900732;29;20095;-67
2023/07/28 01:28:08;;;;;;;36.53;15.48;;;20.10;99.90;;;;;;4900864;29;20056;-67
2023/07/28 01:30:33;;;;;;;50.88;15.82;;;20.50;99.90;;;;;;4917466;29;20051;-67
2023/07/28 01:32:59;;;;;;;42.60;16.17;;;19.40;99.90;;;;;;4919070;29;20040;-67
2023/07/28 01:35:26;;;;;;;42.92;14.60;;;20.30;99.90;;;;;;4918701;29;20044;-67
2023/07/28 01:37:51;;;;;;;43.47;15.93;;;19.70;99.90;;;;;;4900777;29;20040;-67
2023/07/28 01:40:18;;;;;;;34.20;14.88;;;19.20;99.90;;;;;;4917178;29;20091;-67
2023/07/28 01:42:43;;;;;;;39.08;15.73;;;20.40;99.90;;;;;;4900552;29;20047;-67
2023/07/28 01:45:09;;;;;;;36.75;15.38;;;19.70;99.90;;;;;;4900545;29;20044;-67
2023/07/28 01:47:35;;;;;;;33.50;14.25;;;20.50;99.90;;;;;;4917601;29;20047;-66
2023/07/28 01:50:01;;;;;;;41.95;12.95;;;19.60;99.90;;;;;;4900097;29;20040;-67
2023/07/28 01:52:26;;;;;;;34.90;13.27;;;19.40;99.90;;;;;;4916107;29;20107;-67
2023/07/28 01:54:52;;;;;;;35.53;13.80;;;20.40;99.90;;;;;;4917091;29;20040;-67
2023/07/28 01:57:18;;;;;;;34.88;13.15;;;19.40;99.90;;;;;;4917184;29;20520;-67
2023/07/28 01:59:43;;;;;;;33.42;11.77;;;19.40;99.90;;;;;;4899575;29;20044;-67
2023/07/28 02:02:09;;;;;;;26.00;10.55;;;20.50;99.90;;;;;;4900136;29;20488;-67
2023/07/28 02:04:35;;;;;;;30.08;10.55;;;20.20;99.90;;;;;;4900181;29;20042;-67
2023/07/28 02:07:01;;;;;;;31.17;10.32;;;20.10;99.90;;;;;;4917325;29;20047;-67
2023/07/28 02:09:26;;;;;;;32.67;9.48;;;20.10;99.90;;;;;;4899847;29;20043;-66
2023/07/28 02:11:52;;;;;;;22.15;8.98;;;19.50;99.90;;;;;;4917096;29;20046;-67
2023/07/28 02:14:18;;;;;;;32.13;9.95;;;19.70;99.90;;;;;;4916904;29;20036;-67
2023/07/28 02:16:43;;;;;;;24.63;9.18;;;20.20;99.90;;;;;;4899984;29;20035;-67
2023/07/28 02:19:09;;;;;;;25.95;9.10;;;19.50;99.90;;;;;;4899806;29;20095;-66
2023/07/28 02:21:35;;;;;;;21.77;9.02;;;20.40;99.90;;;;;;4916632;29;20511;-67
2023/07/28 02:24:00;;;;;;;27.33;9.00;;;19.10;99.90;;;;;;4899576;29;20051;-67
2023/07/28 02:26:26;;;;;;;28.20;9.93;;;19.20;99.90;;;;;;4899797;29;20047;-67
2023/07/28 02:28:52;;;;;;;23.73;9.88;;;20.30;99.90;;;;;;4916806;29;20058;-67
2023/07/28 02:31:17;;;;;;;29.52;10.00;;;19.70;99.90;;;;;;4916423;29;20523;-67
2023/07/28 02:33:43;;;;;;;30.38;10.57;;;20.20;99.90;;;;;;4899650;29;20295;-67
2023/07/28 02:36:08;;;;;;;30.90;10.43;;;20.70;99.90;;;;;;4899838;29;20040;-67
2023/07/28 02:38:34;;;;;;;23.63;10.35;;;20.50;99.90;;;;;;4916293;29;20040;-67
2023/07/28 02:41:00;;;;;;;28.60;10.35;;;20.10;99.90;;;;;;4899316;29;20407;-67
2023/07/28 02:43:25;;;;;;;31.48;9.40;;;19.40;99.90;;;;;;4916521;29;20625;-67
2023/07/28 02:45:55;;;;;;;26.73;9.35;;;20.20;99.90;;;;;;4916522;29;20552;-66
2023/07/28 02:48:21;;;;;;;27.60;9.50;;;19.10;99.90;;;;;;4899421;29;20044;-67
2023/07/28 02:50:47;;;;;;;32.08;9.43;;;20.50;99.90;;;;;;4899352;29;20419;-67
2023/07/28 02:53:14;;;;;;;30.08;10.15;;;20.10;99.90;;;;;;4916089;29;20035;-67
2023/07/28 02:55:43;;;;;;;31.25;9.35;;;20.20;99.90;;;;;;4916281;29;20051;-67
2023/07/28 02:58:09;;;;;;;34.25;9.05;;;19.30;99.90;;;;;;4916325;29;20048;-67
2023/07/28 03:00:38;;;;;;;26.35;9.70;;;20.10;99.90;;;;;;4915986;29;20432;-66
2023/07/28 03:03:04;;;;;;;27.98;9.25;;;19.80;99.90;;;;;;4898943;29;20039;-66
2023/07/28 03:05:31;;;;;;;22.85;8.90;;;20.40;99.90;;;;;;4916076;29;20100;-67
2023/07/28 03:07:57;;;;;;;20.40;8.70;;;19.70;99.90;;;;;;4883353;29;20087;-67
2023/07/28 03:10:22;;;;;;;24.35;7.65;;;19.90;99.90;;;;;;4915099;29;20082;-67
2023/07/28 03:12:48;;;;;;;40.22;10.38;;;19.80;99.90;;;;;;4898659;29;20040;-67
2023/07/28 03:15:13;;;;;;;28.60;8.73;;;20.50;99.90;;;;;;4899178;29;20047;-67
2023/07/28 03:17:39;;;;;;;25.02;8.23;;;20.10;99.90;;;;;;4899069;29;20131;-67
2023/07/28 03:20:06;;;;;;;27.42;8.50;;;19.60;99.90;;;;;;4898597;29;20075;-67
2023/07/28 03:22:32;;;;;;;30.40;8.75;;;20.30;99.90;;;;;;4915623;29;20540;-67
2023/07/28 03:24:57;;;;;;;34.15;8.00;;;20.60;99.90;;;;;;4899480;29;20048;-67
2023/07/28 03:27:24;;;;;;;24.83;8.05;;;19.70;99.90;;;;;;4916042;29;20496;-66
2023/07/28 03:29:50;;;;;;;19.90;7.20;;;19.50;99.90;;;;;;4915555;29;20500;-66
2023/07/28 03:32:16;;;;;;;18.33;7.53;;;20.40;99.90;;;;;;4915549;29;20044;-67
2023/07/28 03:34:42;;;;;;;29.48;8.20;;;19.10;99.90;;;;;;4898862;29;20175;-67
2023/07/28 03:37:08;;;;;;;28.23;7.97;;;19.20;99.90;;;;;;4898503;29;20500;-67
2023/07/28 03:39:33;;;;;;;27.17;8.20;;;20.20;99.90;;;;;;4898493;29;20052;-68
2023/07/28 03:41:59;;;;;;;24.58;8.07;;;19.50;99.90;;;;;;4915543;29;20063;-67
2023/07/28 03:44:25;;;;;;;25.63;8.20;;;19.00;99.90;;;;;;4915607;29;20560;-67
2023/07/28 03:46:50;;;;;;;23.95;8.07;;;19.50;99.90;;;;;;4898759;29;20404;-67
2023/07/28 03:49:16;;;;;;;26.10;6.97;;;20.30;99.90;;;;;;4898528;29;20427;-67
2023/07/28 03:51:42;;;;;;;26.92;7.15;;;20.40;99.90;;;;;;4882661;29;20535;-67
2023/07/28 03:54:08;;;;;;;27.90;7.53;;;20.40;99.90;;;;;;4915488;29;20075;-66
2023/07/28 03:56:33;;;;;;;25.17;7.05;;;19.30;99.90;;;;;;4898700;29;20449;-67
2023/07/28 03:58:59;;;;;;;30.30;8.60;;;20.40;99.90;;;;;;4898210;29;20096;-67
2023/07/28 04:01:25;;;;;;;19.02;7.00;;;19.30;99.90;;;;;;4915231;29;20146;-67
2023/07/28 04:03:50;;;;;;;17.98;7.43;;;19.50;99.90;;;;;;4898221;29;20118;-67
2023/07/28 04:06:16;;;;;;;18.08;7.22;;;20.60;99.90;;;;;;4898287;29;20287;-67
2023/07/28 04:08:42;;;;;;;22.80;7.93;;;21.00;99.90;;;;;;4915508;29;20385;-67
2023/07/28 04:11:07;;;;;;;20.45;7.05;;;20.00;99.90;;;;;;4915180;29;20457;-67
2023/07/28 04:13:34;;;;;;;27.67;8.43;;;19.80;99.90;;;;;;4915369;29;20044;-67
2023/07/28 04:16:00;;;;;;;19.95;7.13;;;20.30;99.90;;;;;;4898322;29;20088;-67
2023/07/28 04:18:26;;;;;;;20.83;7.20;;;19.70;99.90;;;;;;4898310;29;20381;-67
2023/07/28 04:20:51;;;;;;;23.77;6.78;;;19.60;99.90;;;;;;4897876;29;20044;-67
2023/07/28 04:23:17;;;;;;;18.75;6.85;;;19.90;99.90;;;;;;4900998;29;20047;-67
2023/07/28 04:25:43;;;;;;;18.17;7.53;;;20.40;99.90;;;;;;4918985;29;20043;-67
2023/07/28 04:28:08;;;;;;;23.13;7.18;;;19.20;99.90;;;;;;4901952;29;20127;-67
2023/07/28 04:30:34;;;;;;;22.60;7.50;;;20.10;99.90;;;;;;4918614;29;20044;-67
2023/07/28 04:33:00;;;;;;;25.10;7.50;;;19.80;99.90;;;;;;4901980;29;20567;-67
2023/07/28 04:35:26;;;;;;;23.08;6.85;;;20.10;99.90;;;;;;4918566;29;20127;-67
2023/07/28 04:37:51;;;;;;;21.10;6.43;;;20.40;99.90;;;;;;4918789;29;20055;-67
2023/07/28 04:40:17;;;;;;;21.48;7.50;;;19.40;99.90;;;;;;4918532;29;20036;-67
2023/07/28 04:42:43;;;;;;;19.88;7.82;;;20.00;99.90;;;;;;4918575;29;20399;-67
2023/07/28 04:45:09;;;;;;;28.40;7.95;;;20.70;99.90;;;;;;4901712;29;20036;-67
2023/07/28 04:47:34;;;;;;;25.83;7.28;;;19.40;99.90;;;;;;4901576;29;20044;-67
2023/07/28 04:50:00;;;;;;;17.25;6.70;;;20.40;99.90;;;;;;4901299;29;20048;-67
2023/07/28 04:52:26;;;;;;;25.10;7.82;;;19.50;99.90;;;;;;4918660;29;20514;-67
2023/07/28 04:54:51;;;;;;;21.63;7.25;;;20.10;99.90;;;;;;4918658;29;20422;-67
2023/07/28 04:57:19;;;;;;;14.73;6.50;;;19.30;99.90;;;;;;4901621;29;20087;-67
2023/07/28 04:59:45;;;;;;;25.17;7.68;;;20.20;99.90;;;;;;4901303;29;20052;-67
2023/07/28 05:02:10;;;;;;;21.52;7.70;;;20.00;99.90;;;;;;4901495;29;20040;-67
2023/07/28 05:04:36;;;;;;;12.32;7.45;;;19.30;99.90;;;;;;4917942;29;20126;-67
2023/07/28 05:07:03;;;;;;;14.75;7.80;;;20.40;99.90;;;;;;4885823;29;20079;-67
2023/07/28 05:09:29;;;;;;;24.52;9.40;;;19.20;99.90;;;;;;4901354;29;20052;-67
2023/07/28 05:11:55;;;;;;;23.38;7.70;;;19.20;99.90;;;;;;4901225;29;20527;-67
2023/07/28 05:14:20;;;;;;;24.88;9.20;;;20.00;99.90;;;;;;4918281;29;20044;-67
2023/07/28 05:16:46;;;;;;;15.45;7.47;;;19.80;99.90;;;;;;4918270;29;20064;-67
2023/07/28 05:19:13;;;;;;;14.90;8.38;;;19.10;99.90;;;;;;4885545;29;20528;-66
2023/07/28 05:21:38;;;;;;;15.93;8.55;;;20.40;99.90;;;;;;4917947;29;20172;-66
2023/07/28 05:24:04;;;;;;;16.55;8.65;;;19.50;99.90;;;;;;4917798;29;20123;-67
2023/07/28 05:26:30;;;;;;;18.55;9.35;;;20.60;99.90;;;;;;4900979;29;20036;-67
2023/07/28 05:28:56;;;;;;;19.70;10.68;;;20.60;99.90;;;;;;4901122;29;20465;-67
2023/07/28 05:31:21;;;;;;;18.33;10.20;;;20.20;99.90;;;;;;4900826;29;20079;-67
2023/07/28 05:33:47;;;;;;;20.52;11.00;;;19.80;99.90;;;;;;4916504;29;20055;-66
2023/07/28 05:36:13;;;;;;;14.75;10.32;;;20.10;99.90;;;;;;4900739;29;20044;-67
2023/07/28 05:38:39;;;;;;;17.80;10.25;;;19.40;99.90;;;;;;4900492;29;20530;-67
2023/07/28 05:41:05;;;;;;;16.05;10.32;;;19.60;99.90;;;;;;4917512;29;20040;-67
2023/07/28 05:43:31;;;;;;;14.48;10.43;;;20.30;99.90;;;;;;4900802;29;20437;-67
2023/07/28 05:45:57;;;;;;;18.05;10.50;;;19.30;99.90;;;;;;4900728;29;20052;-67
2023/07/28 05:48:23;;;;;;;15.20;10.50;;;20.30;99.90;;;;;;4900307;29;20170;-67
2023/07/28 05:50:51;;;;;;;20.92;12.15;;;20.00;99.90;;;;;;4900368;29;20506;-67
2023/07/28 05:53:16;;;;;;;16.33;9.75;;;19.90;99.90;;;;;;4900267;29;20107;-67
2023/07/28 05:55:42;;;;;;;11.88;9.80;;;20.20;99.90;;;;;;4900412;29;20044;-67
2023/07/28 05:58:08;;;;;;;12.90;9.30;;;20.70;99.90;;;;;;4917260;29;20047;-67
2023/07/28 06:00:33;;;;;;;14.25;8.70;;;20.30;99.90;;;;;;4900211;29;20044;-67
2023/07/28 06:02:59;;;;;;;14.90;8.95;;;19.80;99.90;;;;;;4899915;29;20055;-67
2023/07/28 06:05:24;;;;;;;10.80;8.55;;;20.60;99.90;;;;;;4900882;29;20039;-67
2023/07/28 06:07:50;;;;;;;15.75;8.93;;;19.50;99.90;;;;;;4900193;29;20504;-67
2023/07/28 06:10:16;;;;;;;11.95;9.60;;;20.20;99.90;;;;;;4899771;29;20124;-67
2023/07/28 06:12:41;;;;;;;15.32;9.55;;;20.60;99.90;;;;;;4917049;29;20164;-67
2023/07/28 06:15:07;;;;;;;15.48;10.43;;;19.70;99.90;;;;;;4899556;29;20482;-67
2023/07/28 06:17:33;;;;;;;11.25;9.60;;;20.00;99.90;;;;;;4900030;29;20044;-67
2023/07/28 06:19:59;;;;;;;13.65;9.75;;;19.80;99.90;;;;;;4916709;29;20411;-67
2023/07/28 06:22:24;;;;;;;13.73;10.32;;;20.40;99.90;;;;;;4900006;29;20044;-67
2023/07/28 06:24:50;;;;;;;11.10;8.90;;;19.70;99.90;;;;;;4899718;29;20530;-67
2023/07/28 06:27:16;;;;;;;14.30;9.23;;;19.90;99.90;;;;;;4916744;29;20044;-67
2023/07/28 06:29:41;;;;;;;14.02;9.18;;;20.00;99.90;;;;;;4899621;29;20044;-67
2023/07/28 06:32:07;;;;;;;14.45;9.85;;;19.80;99.90;;;;;;4899450;29;20040;-67
2023/07/28 06:34:33;;;;;;;11.55;9.43;;;20.50;99.90;;;;;;4899725;29;20051;-67
2023/07/28 06:36:58;;;;;;;13.45;8.88;;;21.00;99.90;;;;;;4899664;29;20043;-67
2023/07/28 06:39:24;;;;;;;12.52;9.50;;;20.70;99.90;;;;;;4899404;29;20091;-67
2023/07/28 06:41:50;;;;;;;10.68;9.05;;;20.10;99.90;;;;;;4899228;29;20076;-66
2023/07/28 06:44:16;;;;;;;17.30;10.68;;;20.70;99.90;;;;;;4899591;29;20036;-67
2023/07/28 06:46:42;;;;;;;14.70;9.27;;;20.80;99.90;;;;;;4916306;29;20036;-67
2023/07/28 06:49:07;;;;;;;12.10;10.27;;;20.50;99.90;;;;;;4899343;29;20496;-67
2023/07/28 06:51:33;;;;;;;16.33;9.90;;;19.70;99.90;;;;;;4916236;29;20036;-67
2023/07/28 06:53:59;;;;;;;15.25;9.02;;;20.20;99.90;;;;;;4916272;29;20066;-66
2023/07/28 06:56:25;;;;;;;11.60;9.00;;;20.00;99.90;;;;;;4916254;29;20044;-67
2023/07/28 06:58:51;;;;;;;14.75;8.38;;;20.40;99.90;;;;;;4899038;29;20044;-67
2023/07/28 07:01:17;;;;;;;10.25;8.00;;;20.10;99.90;;;;;;4899272;29;20207;-67
2023/07/28 07:03:43;;;;;;;8.75;6.90;;;20.10;99.90;;;;;;4899001;29;20148;-67
2023/07/28 07:06:09;;;;;;;8.82;7.93;;;20.90;99.90;;;;;;4899323;29;20044;-67
2023/07/28 07:08:35;;;;;;;8.13;7.00;;;20.80;99.90;;;;;;4900234;29;20143;-67
2023/07/28 07:11:01;;;;;;;10.65;7.95;;;20.70;99.90;;;;;;4916330;29;20044;-68
2023/07/28 07:13:26;;;;;;;8.77;7.72;;;21.20;99.90;;;;;;4915788;29;20131;-67
2023/07/28 07:15:52;;;;;;;8.00;6.72;;;20.40;99.90;;;;;;4898902;29;20044;-68
2023/07/28 07:18:18;;;;;;;9.18;7.07;;;20.40;99.90;;;;;;4915879;29;20050;-68
2023/07/28 07:20:44;;;;;;;9.43;7.03;;;21.10;99.90;;;;;;4898677;29;20123;-67
2023/07/28 07:23:10;;;;;;;10.50;8.20;;;21.10;99.90;;;;;;4898770;29;20503;-65
2023/07/28 07:25:35;;;;;;;9.15;8.15;;;21.10;99.90;;;;;;4915702;29;20036;-68
2023/07/28 07:28:01;;;;;;;9.05;7.20;;;20.80;99.90;;;;;;4899098;29;20048;-67
2023/07/28 07:30:27;;;;;;;9.32;7.10;;;21.30;99.90;;;;;;4915518;29;20051;-67
2023/07/28 07:32:52;;;;;;;9.32;7.43;;;20.60;99.90;;;;;;4915976;29;20044;-68
2023/07/28 07:35:18;;;;;;;7.55;6.85;;;21.20;99.90;;;;;;4915894;29;20100;-68
2023/07/28 07:37:44;;;;;;;7.30;6.50;;;20.80;99.90;;;;;;4898846;29;20048;-68
2023/07/28 07:40:09;;;;;;;9.65;6.97;;;21.20;99.90;;;;;;4898364;29;20089;-68
2023/07/28 07:42:47;;;;;;;7.43;6.57;;;20.70;99.90;;;;;;4915797;29;20036;-68
2023/07/28 07:45:13;;;;;;;8.45;6.80;;;20.70;99.90;;;;;;4898695;29;20044;-68
2023/07/28 07:47:40;;;;;;;7.20;6.50;;;20.60;99.90;;;;;;4898648;29;20415;-68
2023/07/28 07:50:08;;;;;;;6.90;6.25;;;20.90;99.90;;;;;;4915495;29;20404;-68
2023/07/28 07:52:35;;;;;;;10.98;7.25;;;21.60;99.90;;;;;;4915573;29;20544;-67
2023/07/28 07:55:02;;;;;;;7.85;6.00;;;21.60;99.90;;;;;;4915940;29;20118;-68
2023/07/28 07:57:28;;;;;;;8.25;5.97;;;21.40;99.90;;;;;;4917248;29;20096;-68
2023/07/28 07:59:54;;;;;;;7.55;6.60;;;21.30;99.90;;;;;;4902692;29;20040;-67
2023/07/28 08:02:19;;;;;;;7.05;6.35;;;21.30;99.90;;;;;;4919640;29;20040;-67
2023/07/28 08:04:45;;;;;;;11.95;8.43;;;21.10;99.90;;;;;;4902447;29;20415;-67
2023/07/28 08:07:10;;;;;;;10.13;7.50;;;21.30;99.90;;;;;;4902284;29;20047;-68
2023/07/28 08:09:37;;;;;;;9.88;8.60;;;21.90;99.90;;;;;;4919494;29;20153;-67
2023/07/28 08:12:03;;;;;;;9.60;8.00;;;21.30;99.90;;;;;;4902214;29;20048;-68
2023/07/28 08:14:28;;;;;;;8.95;8.05;;;21.70;99.90;;;;;;4919041;29;20402;-68
2023/07/28 08:16:54;;;;;;;8.05;6.85;;;21.80;99.90;;;;;;4902293;29;20052;-68
2023/07/28 08:19:20;;;;;;;9.20;7.20;;;22.50;99.90;;;;;;4902003;29;20044;-67
2023/07/28 08:21:45;;;;;;;8.52;6.95;;;22.50;99.90;;;;;;4901980;29;20040;-68
2023/07/28 08:24:11;;;;;;;8.75;5.35;;;22.50;99.90;;;;;;4918985;29;20556;-68
2023/07/28 08:26:37;;;;;;;6.50;5.90;;;22.50;99.90;;;;;;4919185;29;20047;-67
2023/07/28 08:29:03;;;;;;;7.25;5.13;;;22.60;99.90;;;;;;4901990;29;20327;-67
2023/07/28 08:31:28;;;;;;;6.45;5.47;;;22.20;99.90;;;;;;4918786;29;20092;-68
2023/07/28 08:33:54;;;;;;;8.00;6.10;;;22.50;99.90;;;;;;4901974;29;20032;-68
2023/07/28 08:36:20;;;;;;;6.18;5.57;;;22.50;99.90;;;;;;4918757;29;20047;-67
2023/07/28 08:38:45;;;;;;;7.90;5.65;;;22.60;99.90;;;;;;4918680;29;20044;-67
2023/07/28 08:41:12;;;;;;;6.18;5.38;;;22.00;99.90;;;;;;4918873;29;20468;-67
2023/07/28 08:43:38;;;;;;;9.40;5.32;;;22.10;99.90;;;;;;4901621;29;20503;-67
2023/07/28 08:46:04;;;;;;;8.10;5.65;;;22.50;99.90;;;;;;4901751;29;20047;-68
2023/07/28 08:48:29;;;;;;;8.30;6.00;;;22.20;99.90;;;;;;4901716;29;20104;-68
2023/07/28 08:50:55;;;;;;;6.68;5.15;;;22.10;99.90;;;;;;4918313;29;20464;-68
2023/07/28 08:53:20;;;;;;;7.57;4.90;;;21.90;99.90;;;;;;4918737;29;20048;-67
2023/07/28 08:55:48;;;;;;;6.35;4.82;;;22.50;99.90;;;;;;4918705;29;20050;-67
2023/07/28 08:58:15;;;;;;;6.18;5.50;;;22.60;99.90;;;;;;4901439;29;20040;-67
2023/07/28 09:00:41;;;;;;;7.57;4.57;;;23.00;99.90;;;;;;4901791;29;20405;-67
2023/07/28 09:03:09;;;;;;;5.22;4.18;;;23.10;99.90;;;;;;4902137;29;20092;-67
2023/07/28 09:05:34;;;;;;;7.13;4.78;;;22.40;99.90;;;;;;4902003;29;20041;-67
2023/07/28 09:08:00;;;;;;;6.93;4.18;;;22.80;99.90;;;;;;4918708;29;20088;-67
2023/07/28 09:10:39;;;;;;;5.20;3.17;;;22.80;99.90;;;;;;4918326;29;20044;-67
2023/07/28 09:13:10;;;;;;;5.45;3.60;;;22.80;99.90;;;;;;4901515;29;20382;-67
2023/07/28 09:15:36;;;;;;;5.65;3.30;;;23.00;99.90;;;;;;4901454;29;20047;-67
2023/07/28 09:18:01;;;;;;;4.45;3.22;;;23.10;99.90;;;;;;4918015;29;20048;-67
2023/07/28 09:20:34;;;;;;;3.38;2.88;;;22.70;99.90;;;;;;4917987;29;20079;-67
2023/07/28 09:23:01;;;;;;;6.43;3.47;;;22.70;99.90;;;;;;4901314;29;20095;-67
2023/07/28 09:25:29;;;;;;;5.75;2.88;;;22.90;99.90;;;;;;4917929;29;20044;-67
2023/07/28 09:27:54;;;;;;;3.75;2.70;;;23.20;99.90;;;;;;4901088;29;20104;-67
2023/07/28 09:30:21;;;;;;;5.90;2.60;;;22.60;99.90;;;;;;4917480;29;20040;-67
2023/07/28 09:32:49;;;;;;;9.60;2.78;;;23.00;99.90;;;;;;4901337;29;20102;-67
2023/07/28 09:35:16;;;;;;;5.22;2.67;;;22.90;99.90;;;;;;4900871;29;20043;-67
2023/07/28 09:37:44;;;;;;;4.63;2.22;;;23.60;99.90;;;;;;4917868;29;20066;-67
2023/07/28 09:40:12;;;;;;;4.50;2.28;;;23.60;99.90;;;;;;4900447;29;20055;-67
2023/07/28 09:42:42;;;;;;;4.63;2.40;;;23.40;99.90;;;;;;4900722;29;20048;-67
2023/07/28 09:45:10;;;;;;;4.25;2.20;;;23.30;99.90;;;;;;4917569;29;20051;-67
2023/07/28 09:47:36;;;;;;;3.90;2.30;;;24.00;99.90;;;;;;4917795;29;20043;-67
2023/07/28 09:50:04;;;;;;;4.20;2.15;;;24.30;99.90;;;;;;4917415;29;20047;-66
2023/07/28 09:52:45;;;;;;;3.08;2.08;;;24.40;99.90;;;;;;4917556;29;20051;-68
2023/07/28 09:55:13;;;;;;;5.43;2.25;;;24.50;99.90;;;;;;4901029;29;20071;-68
2023/07/28 09:57:45;;;;;;;4.50;2.00;;;24.40;99.90;;;;;;4917416;29;20040;-68
2023/07/28 10:00:13;;;;;;;4.07;1.90;;;24.30;99.90;;;;;;4900620;29;20052;-68
2023/07/28 10:02:39;;;;;;;4.00;1.85;;;24.40;99.90;;;;;;4900929;29;20389;-68
2023/07/28 10:05:10;;;;;;;4.93;2.75;;;24.40;99.90;;;;;;4900191;29;20496;-68
2023/07/28 10:07:38;;;;;;;5.65;2.53;;;24.10;99.90;;;;;;4917354;29;20040;-67
2023/07/28 10:10:07;;;;;;;4.80;2.50;;;24.20;99.90;;;;;;4916743;29;20115;-67
2023/07/28 10:12:41;;;;;;;5.18;2.50;;;24.00;99.90;;;;;;4917352;29;20032;-68
2023/07/28 10:15:11;;;;;;;5.78;2.10;;;23.60;99.90;;;;;;4900460;29;20119;-68
2023/07/28 10:17:36;;;;;;;5.05;2.20;;;23.90;99.90;;;;;;4917172;29;20119;-68
2023/07/28 10:20:08;;;;;;;3.75;2.00;;;24.60;99.90;;;;;;4916690;29;20039;-67
2023/07/28 10:22:43;;;;;;;4.75;2.58;;;24.60;99.90;;;;;;4884515;29;20043;-68
2023/07/28 10:25:10;;;;;;;7.00;2.15;;;24.10;99.90;;;;;;4916905;29;20044;-68
2023/07/28 10:27:38;;;;;;;5.55;2.53;;;24.10;99.90;;;;;;4900132;29;20457;-67
2023/07/28 10:30:13;;;;;;;4.75;2.38;;;23.90;99.90;;;;;;4899571;29;20058;-68
2023/07/28 10:32:44;;;;;;;2.70;1.92;;;24.10;99.90;;;;;;4916862;29;20042;-68
2023/07/28 10:35:23;;;;;;;2.08;1.30;;;24.00;99.90;;;;;;4899635;29;20075;-67
2023/07/28 10:37:50;;;;;;;5.57;1.90;;;24.20;99.90;;;;;;4899571;29;20056;-68
2023/07/28 10:40:38;;;;;;;2.08;1.80;;;24.20;99.90;;;;;;4916318;29;20048;-68
2023/07/28 10:43:05;;;;;;;3.35;1.70;;;24.00;99.90;;;;;;4916553;29;20571;-68
2023/07/28 10:45:31;;;;;;;1.65;1.38;;;24.20;99.90;;;;;;4900044;29;20480;-68
2023/07/28 10:48:03;;;;;;;4.05;1.70;;;24.20;99.90;;;;;;4916937;29;20051;-68
2023/07/28 10:50:30;;;;;;;3.22;1.73;;;24.20;99.90;;;;;;4899197;29;20048;-68
2023/07/28 10:52:57;;;;;;;5.20;1.70;;;24.40;99.90;;;;;;4902245;29;20048;-68
2023/07/28 10:55:24;;;;;;;4.57;1.92;;;24.20;99.90;;;;;;4918840;29;20044;-68
2023/07/28 10:57:51;;;;;;;3.55;2.05;;;24.00;99.90;;;;;;4899356;29;20052;-68
2023/07/28 11:00:22;;;;;;;9.73;2.40;;;24.10;99.90;;;;;;4899213;29;20059;-68
2023/07/28 11:02:51;;;;;;;5.20;1.67;;;24.10;99.90;;;;;;4899094;29;20156;-68
2023/07/28 11:05:24;;;;;;;3.58;2.17;;;23.90;99.90;;;;;;4899128;29;20079;-68
2023/07/28 11:07:58;;;;;;;2.15;1.60;;;24.10;99.90;;;;;;4916203;29;20115;-67
2023/07/28 11:10:24;;;;;;;3.15;1.90;;;24.30;99.90;;;;;;4898811;29;20103;-67
2023/07/28 11:12:51;;;;;;;2.95;1.83;;;24.00;99.90;;;;;;4916257;29;20452;-68
2023/07/28 11:15:18;;;;;;;4.18;2.03;;;24.50;99.90;;;;;;4883107;29;20048;-68
2023/07/28 11:17:50;;;;;;;5.97;2.10;;;24.40;99.90;;;;;;4898893;29;20044;-67
2023/07/28 11:20:20;;;;;;;5.07;2.28;;;24.60;99.90;;;;;;4898597;29;20043;-68
2023/07/28 11:22:52;;;;;;;3.15;1.92;;;24.70;99.90;;;;;;4883410;29;20095;-68
2023/07/28 11:25:18;;;;;;;4.53;2.20;;;24.70;99.90;;;;;;4898715;29;20495;-67
2023/07/28 11:27:46;;;;;;;2.55;1.73;;;25.00;99.90;;;;;;4898752;29;20064;-68
2023/07/28 11:30:12;;;;;;;6.80;1.77;;;25.30;99.90;;;;;;4915599;29;20411;-68
2023/07/28 11:32:38;;;;;;;5.07;1.90;;;25.50;99.90;;;;;;4898340;29;20519;-68
2023/07/28 11:35:05;;;;;;;3.28;2.10;;;25.40;99.90;;;;;;4898920;29;20044;-68
2023/07/28 11:37:33;;;;;;;2.38;2.00;;;25.30;99.90;;;;;;4915725;29;20040;-68
2023/07/28 11:40:06;;;;;;;8.10;3.65;;;25.40;99.90;;;;;;4898438;29;20452;-67
2023/07/28 11:42:40;;;;;;;2.65;1.67;;;25.40;99.90;;;;;;4883171;29;20036;-68
2023/07/28 11:45:07;;;;;;;3.90;2.40;;;25.80;99.90;;;;;;4915677;29;20118;-67
2023/07/28 11:47:33;;;;;;;4.03;1.67;;;25.70;99.90;;;;;;4898485;29;20055;-68
2023/07/28 11:50:00;;;;;;;2.47;2.08;;;25.70;99.90;;;;;;4898209;29;20079;-67
2023/07/28 11:52:34;;;;;;;3.30;1.98;;;25.90;99.90;;;;;;4915415;29;20048;-68
2023/07/28 11:55:00;;;;;;;3.83;1.42;;;25.80;99.90;;;;;;4898595;29;20040;-68
2023/07/28 11:57:27;;;;;;;3.63;2.40;;;25.80;99.90;;;;;;4898800;29;20420;-68
2023/07/28 11:59:54;;;;;;;4.18;2.30;;;25.60;99.90;;;;;;4915268;29;20052;-68
2023/07/28 12:02:28;;;;;;;4.53;1.90;;;25.70;99.90;;;;;;4915261;29;20100;-68
2023/07/28 12:04:56;;;;;;;4.15;1.75;;;25.50;99.90;;;;;;4915737;29;20071;-68
2023/07/28 12:07:30;;;;;;;3.50;2.10;;;25.20;99.90;;;;;;4898569;29;20087;-68
2023/07/28 12:09:59;;;;;;;4.20;2.42;;;25.20;99.90;;;;;;4915251;29;20040;-68
2023/07/28 12:12:28;;;;;;;2.55;1.77;;;25.30;99.90;;;;;;4898376;29;20095;-67
2023/07/28 12:15:04;;;;;;;1.98;1.42;;;25.30;99.90;;;;;;4898214;29;20051;-68
2023/07/28 12:17:30;;;;;;;3.78;2.17;;;25.50;99.90;;;;;;4915247;29;20512;-68
2023/07/28 12:20:10;;;;;;;2.80;1.73;;;25.70;99.90;;;;;;4915070;29;20048;-67
2023/07/28 12:22:37;;;;;;;3.92;1.48;;;26.10;99.90;;;;;;4915447;29;20099;-68
2023/07/28 12:25:04;;;;;;;2.47;2.13;;;26.30;99.90;;;;;;4915227;29;20115;-68
2023/07/28 12:27:30;;;;;;;4.28;2.63;;;26.40;99.90;;;;;;4915136;29;20090;-68
2023/07/28 12:29:56;;;;;;;2.70;1.70;;;26.30;99.90;;;;;;4898239;29;20084;-68
2023/07/28 12:32:21;;;;;;;2.95;1.95;;;26.40;99.90;;;;;;4900336;29;20079;-68
2023/07/28 12:34:48;;;;;;;4.20;2.00;;;26.10;99.90;;;;;;4915631;29;20051;-68
2023/07/28 12:37:14;;;;;;;4.97;2.60;;;26.00;99.90;;;;;;4915169;29;20040;-68